»·PEaware :: N143VT KPRC-KSEE

N143VT :: KPRC-KSEE

FLIGHT INFORMATION

Flight Status: Arrived
Operator: Privately registered:
United States
More flights under this callsign
Pilot: Anonymous 16492 (16492)
Aircraft: ECLIPSE 500
(EA50)
More flights by this aircraft type
Origin: KPRC Love
United States
Destination: KSEE Gillespie
United States
More flights between these airports :: More routes between these airports
Route: +PRC1 DRK V12 ZELMA V514 BARET
File this flight plan on PilotEdge
Remarks:
Altitude:
(Current/Filed)
28,000ft
Speed:
(Current/Filed)
330kts
Departed: 03-Sep-18 06:22 PM
Arrived: 03-Sep-18 07:25 PM
Distance/Time
Traveled:
253nm/1:02
Distance/Time
To Go:
Arrived

Flight Plot

Page will automatically refresh every two minutes.

Flight plan parsing failed; only flown route is shown


Map Options




Map Legend


Flown Route
Filed Route
Departure Airport
Arrival Airport
Navaid (VOR, NDB)
Fix

Horizontal Profiles

Position Reports

Time Latitude Longitude Heading Altitude Ground
Speed
03-Sep-18 18:03 34.653861 -112.422594 130 5044ft 0kts
03-Sep-18 18:04 34.653861 -112.422594 130 5044ft 0kts
03-Sep-18 18:05 34.653861 -112.422594 130 5044ft 0kts
03-Sep-18 18:06 34.653861 -112.422594 130 5044ft 0kts
03-Sep-18 18:07 34.653861 -112.422594 130 5044ft 0kts
03-Sep-18 18:08 34.653861 -112.422594 130 5044ft 0kts
03-Sep-18 18:09 34.653861 -112.422594 130 5044ft 0kts
03-Sep-18 18:10 34.653861 -112.422594 130 5044ft 0kts
03-Sep-18 18:11 34.653861 -112.422594 130 5044ft 0kts
03-Sep-18 18:12 34.653861 -112.422594 130 5044ft 0kts
03-Sep-18 18:13 34.653861 -112.422594 130 5044ft 0kts
03-Sep-18 18:14 34.653861 -112.422594 130 5044ft 0kts
03-Sep-18 18:14 34.653861 -112.422594 130 5044ft 0kts
03-Sep-18 18:15 34.653861 -112.422594 130 5044ft 0kts
03-Sep-18 18:17 34.653861 -112.422594 130 5044ft 0kts
03-Sep-18 18:17 34.653861 -112.422594 130 5044ft 0kts
03-Sep-18 18:18 34.654630 -112.421321 43 5044ft 20kts
03-Sep-18 18:19 34.657889 -112.417337 40 5044ft 36kts
03-Sep-18 18:21 34.662646 -112.412573 50 5044ft 11kts
03-Sep-18 18:22 34.662708 -112.412155 120 5044ft 0kts
03-Sep-18 18:22 34.662350 -112.411658 146 5044ft 9kts
03-Sep-18 18:23 34.651801 -112.422568 225 5126ft 127kts
03-Sep-18 18:24 34.612995 -112.451335 210 7086ft 181kts
03-Sep-18 18:25 34.604861 -112.494367 345 9523ft 183kts
03-Sep-18 18:26 34.655606 -112.485952 10 11845ft 190kts
03-Sep-18 18:27 34.698689 -112.504189 278 14006ft 201kts
03-Sep-18 18:28 34.704141 -112.572728 276 16003ft 208kts
03-Sep-18 18:29 34.708078 -112.643005 276 17869ft 213kts
03-Sep-18 18:30 34.711368 -112.715387 275 19606ft 218kts
03-Sep-18 18:31 34.714384 -112.789425 275 21231ft 222kts
03-Sep-18 18:32 34.717258 -112.865302 277 22676ft 229kts
03-Sep-18 18:33 34.720152 -112.943983 278 23990ft 238kts
03-Sep-18 18:34 34.723085 -113.025374 279 25194ft 246kts
03-Sep-18 18:35 34.726050 -113.108983 280 26458ft 248kts
03-Sep-18 18:36 34.728938 -113.192033 281 27663ft 247kts
03-Sep-18 18:37 34.732095 -113.281717 280 27770ft 287kts
03-Sep-18 18:38 34.735473 -113.384052 279 27761ft 318kts
03-Sep-18 18:39 34.739008 -113.495140 278 27760ft 338kts
03-Sep-18 18:40 34.742597 -113.611090 278 27760ft 350kts
03-Sep-18 18:41 34.746180 -113.730171 278 27759ft 357kts
03-Sep-18 18:42 34.749721 -113.851593 277 27704ft 363kts
03-Sep-18 18:43 34.753195 -113.974974 277 27616ft 368kts
03-Sep-18 18:44 34.756581 -114.099391 277 27572ft 369kts
03-Sep-18 18:45 34.759844 -114.224120 277 27547ft 370kts
03-Sep-18 18:46 34.762986 -114.349109 277 27543ft 370kts
03-Sep-18 18:47 34.765993 -114.473796 277 27548ft 370kts
03-Sep-18 18:48 34.768901 -114.598829 277 27549ft 370kts
03-Sep-18 18:49 34.771567 -114.718500 277 27548ft 370kts
03-Sep-18 18:50 34.774206 -114.842362 277 27549ft 369kts
03-Sep-18 18:51 34.776727 -114.967104 277 27548ft 370kts
03-Sep-18 18:52 34.779091 -115.091158 277 27548ft 367kts
03-Sep-18 18:53 34.781324 -115.214245 277 27548ft 364kts
03-Sep-18 18:54 34.750428 -115.328206 216 27549ft 402kts
03-Sep-18 18:55 34.648856 -115.386039 204 27578ft 406kts
03-Sep-18 18:56 34.544129 -115.434048 203 27944ft 405kts
03-Sep-18 18:57 34.437724 -115.480840 202 27954ft 408kts
03-Sep-18 18:58 34.332743 -115.529861 219 27949ft 400kts
03-Sep-18 18:59 34.249518 -115.616969 227 27956ft 396kts
03-Sep-18 19:00 34.175563 -115.699108 227 27958ft 397kts
03-Sep-18 19:01 34.091751 -115.785510 218 27959ft 401kts
03-Sep-18 19:02 34.004681 -115.856892 217 27888ft 401kts
03-Sep-18 19:03 33.911986 -115.931969 217 27784ft 402kts
03-Sep-18 19:04 33.826386 -116.000959 217 26932ft 335kts
03-Sep-18 19:05 33.756043 -116.057652 216 25391ft 290kts
03-Sep-18 19:06 33.684584 -116.115131 214 23915ft 353kts
03-Sep-18 19:07 33.601759 -116.183637 216 23336ft 352kts
03-Sep-18 19:08 33.524805 -116.251051 215 21838ft 342kts
03-Sep-18 19:09 33.450320 -116.316250 214 20364ft 331kts
03-Sep-18 19:10 33.377625 -116.379742 213 18881ft 319kts
03-Sep-18 19:11 33.307462 -116.440895 213 17399ft 308kts
03-Sep-18 19:12 33.240345 -116.499276 213 15922ft 295kts
03-Sep-18 19:13 33.175711 -116.555380 213 14148ft 280kts
03-Sep-18 19:14 33.107936 -116.586580 184 12163ft 262kts
03-Sep-18 19:15 33.039147 -116.595488 184 10164ft 248kts
03-Sep-18 19:16 32.971230 -116.603096 184 9030ft 237kts
03-Sep-18 19:17 32.907341 -116.609964 184 9019ft 211kts
03-Sep-18 19:18 32.846276 -116.616318 185 7717ft 240kts
03-Sep-18 19:19 32.787259 -116.628808 234 5942ft 191kts
03-Sep-18 19:20 32.781264 -116.680129 279 5910ft 163kts
03-Sep-18 19:21 32.789450 -116.744801 281 4896ft 169kts
03-Sep-18 19:22 32.797474 -116.796795 282 3998ft 144kts
03-Sep-18 19:23 32.805795 -116.846199 281 2752ft 169kts
03-Sep-18 19:24 32.816460 -116.908753 281 2573ft 141kts
03-Sep-18 19:25 32.823916 -116.951705 281 1036ft 128kts
03-Sep-18 19:27 32.829259 -116.981212 256 391ft 24kts
03-Sep-18 19:28 32.829176 -116.981617 258 391ft 0kts
03-Sep-18 19:29 32.829176 -116.981616 258 389ft 0kts
03-Sep-18 19:30 32.829176 -116.981616 258 389ft 0kts
03-Sep-18 19:31 32.829176 -116.981616 258 389ft 0kts

Navigation Log

Ident Type
Flight plan parsing failed, navigation log unavailable